Wednesday, September 17, 2014
05:38 UTC
  |  Log In   |  Register Free
Airport Search:

Tyler Pounds Regional Airport
(KTYR)

FAA data valid effective July 24, 2014 until September 18, 2014 (unless otherwise noted).

 
 
 
 
 
 
 
 
 
 
 
 
 
 

Current Aviation Weather for Tyler Pounds Regional Airport (KTYR)

The most recent METAR observation for KTYR was updated at: 0416
METAR Summary (Translated METAR)
KTYR
170353Z AUTO 16005KT 10SM OVC110 26/22 A3003 RMK AO2 SLP161 T02610222
KJDD
170515Z AUTO 00000KT 8SM CLR 24/23 A3002 RMK AO2
(23.8 nm NW from KTYR)
KJSO
170515Z AUTO 20003KT 10SM CLR 23/21 A3004 RMK AO2 T02380217
(30.6 nm SE from KTYR)
TAF Summary (Translated TAF)
KTYR
161743Z 1618/1718 11005KT P6SM SCT050 BKN150 BKN250 FM162000 12006KT P6SM VCTS SCT050CB BKN150 BKN250 FM170100 14003KT P6SM SCT250 TEMPO 1709/1713 5SM BR FM171600 17005KT P6SM FEW035 SCT250
  Airport Weather Conditions for KTYR

 Current Weather at TYR
77° F
Fair
South winds at 4.6 mph
TYR NOAA Radar

Pressure: 30.02 in
Humidity: 85%
Wind: South at 4.6 MPH (4 KT)
Dew Point: 72.0°F
Visibility: 10.00 mi


Airport Weather Forecast for KTYR

Translated METAR and TAF for KTYR
Translated METAR for KTYR (0532 UTC 17 September 2014)
found at http://aviationweather.gov/adds/metars/
 
METAR text: KTYR 170453Z AUTO 18004KT 10SM CLR 25/22 A3002 RMK AO2 SLP158 T02500222
Conditions at: KTYR (TYLER , TX, US) observed 0453 UTC 17 September 2014
Temperature: 25.0°C (77°F)
Dewpoint: 22.2°C (72°F) [RH = 84%]
Pressure (altimeter): 30.02 inches Hg (1016.7 mb)
[Sea-level pressure: 1015.8 mb]
Winds: from the S (180 degrees) at 5 MPH (4 knots; 2.1 m/s)
Visibility: 10 or more miles (16+ km)
Ceiling: at least 12,000 feet AGL
Clouds: sky clear below 12,000 feet AGL
Weather: automated observation with no human augmentation;
there may or may not be significant weather present at this time
Translated TAF for KTYR
Forecast for: KTYR (TYLER , TX, US)
TAF Text: KTYR 162341Z 1700/1724 07005KT P6SM SCT150 BKN250
Forecast period: 0000 to 0300 UTC 17 September 2014
Forecast type: FROM: standard forecast or significant change
Winds: from the ENE (70 degrees) at 6 MPH (5 knots; 2.6 m/s)
Visibility: 6 or more miles (10+ km)
Ceiling: 25000 feet AGL
Clouds: scattered clouds at 15000 feet AGL
broken clouds at 25000 feet AGL
Weather: no significant weather forecast for this period
TAF Text: FM170300 14003KT P6SM BKN250
Forecast period: 0300 to 1600 UTC 17 September 2014
Forecast type: FROM: standard forecast or significant change
Winds: from the SE (140 degrees) at 3 MPH (3 knots; 1.6 m/s)
Visibility: 6 or more miles (10+ km)
Ceiling: 25000 feet AGL
Clouds: broken clouds at 25000 feet AGL
Weather: no significant weather forecast for this period
TAF Text: FM171600 17005KT P6SM FEW035 BKN250
Forecast period: 1600 to 1800 UTC 17 September 2014
Forecast type: FROM: standard forecast or significant change
Winds: from the S (170 degrees) at 6 MPH (5 knots; 2.6 m/s)
Visibility: 6 or more miles (10+ km)
Ceiling: 25000 feet AGL
Clouds: few clouds at 3500 feet AGL
broken clouds at 25000 feet AGL
Weather: no significant weather forecast for this period
TAF Text: FM171800 18008KT P6SM SCT050 BKN150 BKN250
Forecast period: 1800 UTC 17 September 2014 to 0000 UTC 18 September 2014
Forecast type: FROM: standard forecast or significant change
Winds: from the S (180 degrees) at 9 MPH (8 knots; 4.2 m/s)
Visibility: 6 or more miles (10+ km)
Ceiling: 15000 feet AGL
Clouds: scattered clouds at 5000 feet AGL
broken clouds at 15000 feet AGL
broken clouds at 25000 feet AGL
Weather: no significant weather forecast for this period

Find All Airport Services Find A Hotel Find A Rental Car Find A Golf Course Find A Restaurant $100 Hamburger



FBO's on the Field
FBO Company Facility Photos Services Transportation Aviation Fuel Prices: Prices include tax
Catering Weather Repair Courtesy Rental Type 100LL JetA JetA+ MOGAS 8087
 
Jet Center of Tyler

Currently rated 5 by 1 person
FS:Phillips66
Last Updated: Sep-09
Login to update fuel prices
SS:
Contact Jet Center of TylerMore FBO Information
 
Johnson Aviation, Inc

Currently rated 4.1 by 2 people
FS:Avfuel
Last Updated: Sep-05
Login to update fuel prices
SS:
Contact Johnson Aviation, IncMore FBO Information
 
Add another FBO Facility Photos Catering Weather Repair Courtesy Rental Type 100LL JetA JetA+ MOGAS 8087
Services Transportation Aviation Fuel Prices: Prices include tax


model-print
model-print
model-print
model-print